sensor_id;sensor_type;location;lat;lon;timestamp;pressure;altitude;pressure_sealevel;temperature;humidity
70521;BME280;58442;52.716;23.560;2023-05-11T00:01:46;102143.34;;;6.25;56.37
70521;BME280;58442;52.716;23.560;2023-05-11T00:03:48;102147.94;;;6.25;56.43
70521;BME280;58442;52.716;23.560;2023-05-11T00:05:49;102150.38;;;6.21;56.50
70521;BME280;58442;52.716;23.560;2023-05-11T00:07:51;102149.58;;;6.21;56.42
70521;BME280;58442;52.716;23.560;2023-05-11T00:10:01;102148.52;;;6.17;56.51
70521;BME280;58442;52.716;23.560;2023-05-11T00:12:04;102146.40;;;6.14;56.70
70521;BME280;58442;52.716;23.560;2023-05-11T00:14:06;102143.19;;;6.12;56.78
70521;BME280;58442;52.716;23.560;2023-05-11T00:16:08;102145.34;;;6.10;56.84
70521;BME280;58442;52.716;23.560;2023-05-11T00:18:16;102144.02;;;6.07;56.97
70521;BME280;58442;52.716;23.560;2023-05-11T00:20:18;102142.70;;;6.05;57.15
70521;BME280;58442;52.716;23.560;2023-05-11T00:22:23;102142.16;;;6.02;57.17
70521;BME280;58442;52.716;23.560;2023-05-11T00:24:24;102148.65;;;6.01;57.27
70521;BME280;58442;52.716;23.560;2023-05-11T00:26:31;102151.63;;;6.00;57.31
70521;BME280;58442;52.716;23.560;2023-05-11T00:28:33;102153.02;;;5.97;57.51
70521;BME280;58442;52.716;23.560;2023-05-11T00:30:35;102149.77;;;5.95;57.52
70521;BME280;58442;52.716;23.560;2023-05-11T00:32:37;102144.66;;;5.94;57.54
70521;BME280;58442;52.716;23.560;2023-05-11T00:34:47;102145.74;;;5.93;57.63
70521;BME280;58442;52.716;23.560;2023-05-11T00:36:49;102136.31;;;5.90;57.79
70521;BME280;58442;52.716;23.560;2023-05-11T00:38:50;102138.46;;;5.88;57.83
70521;BME280;58442;52.716;23.560;2023-05-11T00:40:53;102140.64;;;5.86;57.89
70521;BME280;58442;52.716;23.560;2023-05-11T00:43:01;102139.03;;;5.85;57.96
70521;BME280;58442;52.716;23.560;2023-05-11T00:45:04;102139.58;;;5.82;58.19
70521;BME280;58442;52.716;23.560;2023-05-11T00:47:06;102151.75;;;5.80;58.23
70521;BME280;58442;52.716;23.560;2023-05-11T00:49:07;102147.45;;;5.79;58.13
70521;BME280;58442;52.716;23.560;2023-05-11T00:51:17;102150.43;;;5.77;58.14
70521;BME280;58442;52.716;23.560;2023-05-11T00:53:19;102149.07;;;5.74;58.29
70521;BME280;58442;52.716;23.560;2023-05-11T00:55:21;102150.45;;;5.72;58.35
70521;BME280;58442;52.716;23.560;2023-05-11T00:57:23;102156.38;;;5.69;58.41
70521;BME280;58442;52.716;23.560;2023-05-11T00:59:32;102158.84;;;5.65;58.49
70521;BME280;58442;52.716;23.560;2023-05-11T01:01:34;102158.33;;;5.63;58.59
70521;BME280;58442;52.716;23.560;2023-05-11T01:03:36;102160.23;;;5.63;58.60
70521;BME280;58442;52.716;23.560;2023-05-11T01:05:48;102159.39;;;5.62;58.61
70521;BME280;58442;52.716;23.560;2023-05-11T01:08:01;102166.67;;;5.62;58.62
70521;BME280;58442;52.716;23.560;2023-05-11T01:17:21;102157.57;;;5.53;58.87
70521;BME280;58442;52.716;23.560;2023-05-11T01:19:40;102165.67;;;5.47;58.95
70521;BME280;58442;52.716;23.560;2023-05-11T01:21:44;102166.77;;;5.46;59.09
70521;BME280;58442;52.716;23.560;2023-05-11T01:26:15;102161.13;;;5.43;59.16
70521;BME280;58442;52.716;23.560;2023-05-11T01:30:42;102161.95;;;5.38;59.20
70521;BME280;58442;52.716;23.560;2023-05-11T01:32:47;102161.69;;;5.35;59.22
70521;BME280;58442;52.716;23.560;2023-05-11T01:35:03;102159.28;;;5.33;59.28
70521;BME280;58442;52.716;23.560;2023-05-11T01:37:15;102156.86;;;5.32;59.39
70521;BME280;58442;52.716;23.560;2023-05-11T01:39:22;102155.54;;;5.29;59.41
70521;BME280;58442;52.716;23.560;2023-05-11T01:41:27;102156.59;;;5.28;59.43
70521;BME280;58442;52.716;23.560;2023-05-11T01:43:34;102158.77;;;5.26;59.44
70521;BME280;58442;52.716;23.560;2023-05-11T01:45:45;102155.55;;;5.24;59.53
70521;BME280;58442;52.716;23.560;2023-05-11T01:47:49;102157.73;;;5.22;59.72
70521;BME280;58442;52.716;23.560;2023-05-11T01:49:53;102152.59;;;5.20;59.78
70521;BME280;58442;52.716;23.560;2023-05-11T01:51:56;102155.56;;;5.19;59.85
70521;BME280;58442;52.716;23.560;2023-05-11T01:54:00;102153.95;;;5.18;59.87
70521;BME280;58442;52.716;23.560;2023-05-11T01:56:03;102157.73;;;5.17;60.02
70521;BME280;58442;52.716;23.560;2023-05-11T01:58:08;102151.83;;;5.15;60.09
70521;BME280;58442;52.716;23.560;2023-05-11T02:00:12;102157.21;;;5.15;60.17
70521;BME280;58442;52.716;23.560;2023-05-11T02:02:17;102145.89;;;5.13;60.08
70521;BME280;58442;52.716;23.560;2023-05-11T02:04:21;102148.86;;;5.11;60.19
70521;BME280;58442;52.716;23.560;2023-05-11T02:06:24;102156.43;;;5.09;60.22
70521;BME280;58442;52.716;23.560;2023-05-11T02:08:28;102152.92;;;5.09;60.24
70521;BME280;58442;52.716;23.560;2023-05-11T02:10:32;102157.77;;;5.07;60.23
70521;BME280;58442;52.716;23.560;2023-05-11T02:12:35;102161.02;;;5.04;60.32
70521;BME280;58442;52.716;23.560;2023-05-11T02:14:42;102158.61;;;5.02;60.35
70521;BME280;58442;52.716;23.560;2023-05-11T02:16:45;102158.86;;;5.01;60.40
70521;BME280;58442;52.716;23.560;2023-05-11T02:18:49;102161.59;;;4.96;60.38
70521;BME280;58442;52.716;23.560;2023-05-11T02:20:52;102160.23;;;4.93;60.52
70521;BME280;58442;52.716;23.560;2023-05-11T02:22:55;102159.18;;;4.89;60.68
70521;BME280;58442;52.716;23.560;2023-05-11T02:24:57;102170.48;;;4.86;60.62
70521;BME280;58442;52.716;23.560;2023-05-11T02:26:59;102171.85;;;4.83;60.67
70521;BME280;58442;52.716;23.560;2023-05-11T02:29:01;102167.83;;;4.81;60.79
70521;BME280;58442;52.716;23.560;2023-05-11T02:31:08;102168.88;;;4.80;60.80
70521;BME280;58442;52.716;23.560;2023-05-11T02:33:18;102169.16;;;4.78;60.82
70521;BME280;58442;52.716;23.560;2023-05-11T02:35:23;102175.63;;;4.77;60.81
70521;BME280;58442;52.716;23.560;2023-05-11T02:37:42;102166.75;;;4.77;60.82
70521;BME280;58442;52.716;23.560;2023-05-11T02:39:47;102176.71;;;4.76;60.93
70521;BME280;58442;52.716;23.560;2023-05-11T02:41:56;102175.10;;;4.75;60.89
70521;BME280;58442;52.716;23.560;2023-05-11T02:44:03;102175.10;;;4.75;60.87
70521;BME280;58442;52.716;23.560;2023-05-11T02:46:12;102177.24;;;4.73;60.85
70521;BME280;58442;52.716;23.560;2023-05-11T02:48:22;102182.63;;;4.73;60.89
70521;BME280;58442;52.716;23.560;2023-05-11T02:50:28;102177.24;;;4.73;61.03
70521;BME280;58442;52.716;23.560;2023-05-11T02:52:32;102172.94;;;4.72;61.00
70521;BME280;58442;52.716;23.560;2023-05-11T02:54:36;102183.19;;;4.70;61.06
70521;BME280;58442;52.716;23.560;2023-05-11T02:56:40;102178.32;;;4.72;61.01
70521;BME280;58442;52.716;23.560;2023-05-11T02:58:41;102185.60;;;4.72;61.13
70521;BME280;58442;52.716;23.560;2023-05-11T03:00:44;102183.19;;;4.70;61.16
70521;BME280;58442;52.716;23.560;2023-05-11T03:02:45;102180.48;;;4.70;61.14
70521;BME280;58442;52.716;23.560;2023-05-11T03:04:50;102188.58;;;4.70;61.19
70521;BME280;58442;52.716;23.560;2023-05-11T03:06:53;102184.27;;;4.69;61.25
70521;BME280;58442;52.716;23.560;2023-05-11T03:08:54;102190.74;;;4.68;61.27
70521;BME280;58442;52.716;23.560;2023-05-11T03:10:57;102190.98;;;4.66;61.27
70521;BME280;58442;52.716;23.560;2023-05-11T03:13:06;102194.77;;;4.65;61.30
70521;BME280;58442;52.716;23.560;2023-05-11T03:15:10;102193.15;;;4.64;61.47
70521;BME280;58442;52.716;23.560;2023-05-11T03:17:14;102193.43;;;4.63;61.50
70521;BME280;58442;52.716;23.560;2023-05-11T03:19:16;102198.01;;;4.62;61.57
70521;BME280;58442;52.716;23.560;2023-05-11T03:21:22;102189.93;;;4.62;61.61
70521;BME280;58442;52.716;23.560;2023-05-11T03:23:25;102190.73;;;4.63;61.77
70521;BME280;58442;52.716;23.560;2023-05-11T03:25:27;102188.58;;;4.65;61.71
70521;BME280;58442;52.716;23.560;2023-05-11T03:27:29;102187.49;;;4.66;61.70
70521;BME280;58442;52.716;23.560;2023-05-11T03:29:36;102199.89;;;4.67;61.71
70521;BME280;58442;52.716;23.560;2023-05-11T03:31:42;102195.84;;;4.70;61.77
70521;BME280;58442;52.716;23.560;2023-05-11T03:33:43;102192.06;;;4.71;61.79
70521;BME280;58442;52.716;23.560;2023-05-11T03:35:46;102195.29;;;4.73;61.80
70521;BME280;58442;52.716;23.560;2023-05-11T03:37:51;102196.66;;;4.75;61.82
70521;BME280;58442;52.716;23.560;2023-05-11T03:39:57;102194.77;;;4.76;61.89
70521;BME280;58442;52.716;23.560;2023-05-11T03:41:59;102195.29;;;4.78;61.88
70521;BME280;58442;52.716;23.560;2023-05-11T03:44:04;102199.31;;;4.80;61.88
70521;BME280;58442;52.716;23.560;2023-05-11T03:46:07;102195.29;;;4.83;61.85
70521;BME280;58442;52.716;23.560;2023-05-11T03:48:10;102197.70;;;4.84;61.93
70521;BME280;58442;52.716;23.560;2023-05-11T03:50:16;102197.70;;;4.89;61.86
70521;BME280;58442;52.716;23.560;2023-05-11T03:52:19;102206.02;;;4.93;61.82
70521;BME280;58442;52.716;23.560;2023-05-11T03:54:21;102206.02;;;4.98;61.76
70521;BME280;58442;52.716;23.560;2023-05-11T03:56:23;102201.16;;;5.00;61.81
70521;BME280;58442;52.716;23.560;2023-05-11T03:58:25;102205.50;;;5.01;61.84
70521;BME280;58442;52.716;23.560;2023-05-11T04:00:27;102202.52;;;5.03;61.83
70521;BME280;58442;52.716;23.560;2023-05-11T04:02:35;102200.35;;;5.05;61.85
70521;BME280;58442;52.716;23.560;2023-05-11T04:04:37;102206.27;;;5.07;61.98
70521;BME280;58442;52.716;23.560;2023-05-11T04:06:39;102209.52;;;5.09;62.02
70521;BME280;58442;52.716;23.560;2023-05-11T04:08:40;102202.48;;;5.13;61.96
70521;BME280;58442;52.716;23.560;2023-05-11T04:10:50;102208.95;;;5.17;61.98
70521;BME280;58442;52.716;23.560;2023-05-11T04:12:52;102204.08;;;5.19;62.12
70521;BME280;58442;52.716;23.560;2023-05-11T04:14:54;102217.27;;;5.20;62.18
70521;BME280;58442;52.716;23.560;2023-05-11T04:16:56;102207.85;;;5.23;62.11
70521;BME280;58442;52.716;23.560;2023-05-11T04:19:05;102216.45;;;5.25;62.15
70521;BME280;58442;52.716;23.560;2023-05-11T04:21:07;102210.78;;;5.27;62.25
70521;BME280;58442;52.716;23.560;2023-05-11T04:23:08;102213.20;;;5.28;62.23
70521;BME280;58442;52.716;23.560;2023-05-11T04:25:10;102216.45;;;5.30;62.23
70521;BME280;58442;52.716;23.560;2023-05-11T04:27:20;102215.36;;;5.31;62.37
70521;BME280;58442;52.716;23.560;2023-05-11T04:29:22;102216.17;;;5.32;62.42
70521;BME280;58442;52.716;23.560;2023-05-11T04:31:23;102211.30;;;5.34;62.46
70521;BME280;58442;52.716;23.560;2023-05-11T04:33:24;102208.88;;;5.37;62.44
70521;BME280;58442;52.716;23.560;2023-05-11T04:35:38;102212.90;;;5.40;62.51
70521;BME280;58442;52.716;23.560;2023-05-11T04:37:40;102212.08;;;5.44;62.59
70521;BME280;58442;52.716;23.560;2023-05-11T04:39:41;102215.02;;;5.48;62.52
70521;BME280;58442;52.716;23.560;2023-05-11T04:41:42;102223.90;;;5.54;62.57
70521;BME280;58442;52.716;23.560;2023-05-11T04:43:50;102223.08;;;5.58;62.56
70521;BME280;58442;52.716;23.560;2023-05-11T04:45:52;102229.26;;;5.64;62.55
70521;BME280;58442;52.716;23.560;2023-05-11T04:47:53;102229.76;;;5.71;62.50
70521;BME280;58442;52.716;23.560;2023-05-11T04:49:55;102230.81;;;5.75;62.45
70521;BME280;58442;52.716;23.560;2023-05-11T04:52:05;102228.89;;;5.81;62.45
70521;BME280;58442;52.716;23.560;2023-05-11T04:54:07;102226.98;;;5.86;62.47
70521;BME280;58442;52.716;23.560;2023-05-11T04:56:10;102227.21;;;5.90;62.42
70521;BME280;58442;52.716;23.560;2023-05-11T04:58:12;102228.57;;;5.97;62.35
70521;BME280;58442;52.716;23.560;2023-05-11T05:00:20;102224.48;;;6.05;62.29
70521;BME280;58442;52.716;23.560;2023-05-11T05:02:22;102219.28;;;6.14;62.24
70521;BME280;58442;52.716;23.560;2023-05-11T05:04:24;102222.48;;;6.21;62.11
70521;BME280;58442;52.716;23.560;2023-05-11T05:06:25;102230.77;;;6.29;61.94
70521;BME280;58442;52.716;23.560;2023-05-11T05:08:36;102226.66;;;6.37;61.82
70521;BME280;58442;52.716;23.560;2023-05-11T05:10:37;102232.54;;;6.44;61.72
70521;BME280;58442;52.716;23.560;2023-05-11T05:12:39;102231.66;;;6.54;61.58
70521;BME280;58442;52.716;23.560;2023-05-11T05:14:41;102231.85;;;6.63;61.48
70521;BME280;58442;52.716;23.560;2023-05-11T05:16:50;102240.45;;;6.70;61.37
70521;BME280;58442;52.716;23.560;2023-05-11T05:18:54;102244.96;;;6.79;61.44
70521;BME280;58442;52.716;23.560;2023-05-11T05:20:55;102243.25;;;6.89;61.30
70521;BME280;58442;52.716;23.560;2023-05-11T05:22:56;102239.11;;;6.96;61.21
70521;BME280;58442;52.716;23.560;2023-05-11T05:25:06;102245.80;;;7.04;61.18
70521;BME280;58442;52.716;23.560;2023-05-11T05:27:08;102248.12;;;7.16;61.05
70521;BME280;58442;52.716;23.560;2023-05-11T05:29:09;102252.84;;;7.29;60.91
70521;BME280;58442;52.716;23.560;2023-05-11T05:31:11;102251.10;;;7.38;60.79
70521;BME280;58442;52.716;23.560;2023-05-11T05:33:20;102250.99;;;7.48;60.64
70521;BME280;58442;52.716;23.560;2023-05-11T05:35:21;102256.28;;;7.58;60.45
70521;BME280;58442;52.716;23.560;2023-05-11T05:37:23;102252.86;;;7.72;60.23
70521;BME280;58442;52.716;23.560;2023-05-11T05:39:25;102247.24;;;7.87;59.69
70521;BME280;58442;52.716;23.560;2023-05-11T05:41:35;102260.56;;;8.02;59.67
70521;BME280;58442;52.716;23.560;2023-05-11T05:43:37;102262.77;;;8.19;59.44
70521;BME280;58442;52.716;23.560;2023-05-11T05:45:38;102264.44;;;8.34;59.15
70521;BME280;58442;52.716;23.560;2023-05-11T05:47:39;102255.59;;;8.47;58.91
70521;BME280;58442;52.716;23.560;2023-05-11T05:49:50;102249.43;;;8.60;58.61
70521;BME280;58442;52.716;23.560;2023-05-11T05:51:52;102252.75;;;8.71;58.32
70521;BME280;58442;52.716;23.560;2023-05-11T05:53:54;102256.02;;;8.87;58.02
70521;BME280;58442;52.716;23.560;2023-05-11T05:55:56;102253.61;;;8.99;57.86
70521;BME280;58442;52.716;23.560;2023-05-11T05:58:05;102256.66;;;9.11;57.58
70521;BME280;58442;52.716;23.560;2023-05-11T06:00:07;102258.08;;;9.22;57.29
70521;BME280;58442;52.716;23.560;2023-05-11T06:02:09;102252.97;;;9.35;57.00
70521;BME280;58442;52.716;23.560;2023-05-11T06:04:14;102259.99;;;9.49;56.73
70521;BME280;58442;52.716;23.560;2023-05-11T06:06:20;102262.39;;;9.65;56.37
70521;BME280;58442;52.716;23.560;2023-05-11T06:08:21;102262.38;;;9.78;56.14
70521;BME280;58442;52.716;23.560;2023-05-11T06:10:23;102256.73;;;9.89;55.98
70521;BME280;58442;52.716;23.560;2023-05-11T06:12:25;102251.88;;;9.99;55.71
70521;BME280;58442;52.716;23.560;2023-05-11T06:14:35;102248.31;;;10.12;55.43
70521;BME280;58442;52.716;23.560;2023-05-11T06:16:36;102263.49;;;10.27;55.13
70521;BME280;58442;52.716;23.560;2023-05-11T06:18:38;102266.48;;;10.39;54.89
70521;BME280;58442;52.716;23.560;2023-05-11T06:20:39;102265.13;;;10.51;54.69
70521;BME280;58442;52.716;23.560;2023-05-11T06:22:50;102251.15;;;10.66;54.29
70521;BME280;58442;52.716;23.560;2023-05-11T06:24:51;102250.63;;;10.86;53.91
70521;BME280;58442;52.716;23.560;2023-05-11T06:26:53;102257.74;;;11.05;53.38
70521;BME280;58442;52.716;23.560;2023-05-11T06:28:55;102252.86;;;11.24;53.04
70521;BME280;58442;52.716;23.560;2023-05-11T06:31:05;102253.10;;;11.45;52.62
70521;BME280;58442;52.716;23.560;2023-05-11T06:33:06;102259.41;;;11.63;52.19
70521;BME280;58442;52.716;23.560;2023-05-11T06:35:08;102262.04;;;11.85;51.77
70521;BME280;58442;52.716;23.560;2023-05-11T06:37:10;102266.25;;;12.09;51.35
70521;BME280;58442;52.716;23.560;2023-05-11T06:39:20;102259.84;;;12.30;50.86
70521;BME280;58442;52.716;23.560;2023-05-11T06:41:21;102258.38;;;12.50;50.39
70521;BME280;58442;52.716;23.560;2023-05-11T06:43:23;102254.48;;;12.69;50.05
70521;BME280;58442;52.716;23.560;2023-05-11T06:45:24;102254.78;;;12.84;49.75
70521;BME280;58442;52.716;23.560;2023-05-11T06:47:35;102253.91;;;13.01;49.36
70521;BME280;58442;52.716;23.560;2023-05-11T06:49:36;102258.53;;;13.18;48.97
70521;BME280;58442;52.716;23.560;2023-05-11T06:51:38;102264.09;;;13.39;48.47
70521;BME280;58442;52.716;23.560;2023-05-11T06:53:39;102261.58;;;13.55;48.16
70521;BME280;58442;52.716;23.560;2023-05-11T06:55:49;102254.41;;;13.71;47.69
70521;BME280;58442;52.716;23.560;2023-05-11T06:57:51;102259.63;;;13.85;47.48
70521;BME280;58442;52.716;23.560;2023-05-11T06:59:52;102262.25;;;14.02;47.11
70521;BME280;58442;52.716;23.560;2023-05-11T07:01:54;102256.32;;;14.21;46.74
70521;BME280;58442;52.716;23.560;2023-05-11T07:04:04;102247.60;;;14.40;46.21
70521;BME280;58442;52.716;23.560;2023-05-11T07:06:06;102245.40;;;14.54;45.70
70521;BME280;58442;52.716;23.560;2023-05-11T07:08:07;102251.38;;;14.68;45.37
70521;BME280;58442;52.716;23.560;2023-05-11T07:10:09;102251.88;;;14.83;45.03
70521;BME280;58442;52.716;23.560;2023-05-11T07:12:19;102241.87;;;14.99;44.56
70521;BME280;58442;52.716;23.560;2023-05-11T07:14:20;102245.52;;;15.15;44.12
70521;BME280;58442;52.716;23.560;2023-05-11T07:16:22;102252.73;;;15.32;43.75
70521;BME280;58442;52.716;23.560;2023-05-11T07:18:23;102247.72;;;15.46;43.44
70521;BME280;58442;52.716;23.560;2023-05-11T07:20:34;102251.38;;;15.63;43.02
70521;BME280;58442;52.716;23.560;2023-05-11T07:22:40;102249.86;;;15.77;42.53
70521;BME280;58442;52.716;23.560;2023-05-11T07:24:42;102246.30;;;15.89;42.08
70521;BME280;58442;52.716;23.560;2023-05-11T07:26:43;102237.94;;;15.98;41.90
70521;BME280;58442;52.716;23.560;2023-05-11T07:28:49;102242.94;;;16.08;41.48
70521;BME280;58442;52.716;23.560;2023-05-11T07:30:50;102231.47;;;16.18;40.93
70521;BME280;58442;52.716;23.560;2023-05-11T07:32:52;102243.91;;;16.28;40.86
70521;BME280;58442;52.716;23.560;2023-05-11T07:34:53;102239.97;;;16.41;40.61
70521;BME280;58442;52.716;23.560;2023-05-11T07:37:03;102240.35;;;16.55;40.33
70521;BME280;58442;52.716;23.560;2023-05-11T07:39:05;102239.61;;;16.71;39.85
70521;BME280;58442;52.716;23.560;2023-05-11T07:41:07;102230.58;;;16.86;39.60
70521;BME280;58442;52.716;23.560;2023-05-11T07:43:09;102242.28;;;16.99;39.36
70521;BME280;58442;52.716;23.560;2023-05-11T07:45:18;102232.37;;;17.10;39.14
70521;BME280;58442;52.716;23.560;2023-05-11T07:47:20;102230.22;;;17.19;38.67
70521;BME280;58442;52.716;23.560;2023-05-11T07:49:23;102230.49;;;17.30;38.36
70521;BME280;58442;52.716;23.560;2023-05-11T07:51:24;102227.98;;;17.40;38.14
70521;BME280;58442;52.716;23.560;2023-05-11T07:53:33;102229.39;;;17.50;37.65
70521;BME280;58442;52.716;23.560;2023-05-11T07:55:36;102232.73;;;17.59;37.05
70521;BME280;58442;52.716;23.560;2023-05-11T07:57:37;102236.08;;;17.68;36.88
70521;BME280;58442;52.716;23.560;2023-05-11T07:59:39;102224.90;;;17.77;36.60
70521;BME280;58442;52.716;23.560;2023-05-11T08:01:48;102236.13;;;17.88;36.41
70521;BME280;58442;52.716;23.560;2023-05-11T08:03:50;102231.30;;;18.00;36.01
70521;BME280;58442;52.716;23.560;2023-05-11T08:05:51;102233.46;;;18.11;35.80
70521;BME280;58442;52.716;23.560;2023-05-11T08:07:53;102221.45;;;18.19;35.29
70521;BME280;58442;52.716;23.560;2023-05-11T08:10:03;102214.56;;;18.28;35.31
70521;BME280;58442;52.716;23.560;2023-05-11T08:12:04;102218.62;;;18.35;34.86
70521;BME280;58442;52.716;23.560;2023-05-11T08:14:06;102234.10;;;18.43;34.74
70521;BME280;58442;52.716;23.560;2023-05-11T08:16:08;102231.11;;;18.51;34.59
70521;BME280;58442;52.716;23.560;2023-05-11T08:18:17;102233.70;;;18.64;34.37
70521;BME280;58442;52.716;23.560;2023-05-11T08:20:18;102223.27;;;18.73;34.07
70521;BME280;58442;52.716;23.560;2023-05-11T08:22:20;102221.80;;;18.79;33.78
70521;BME280;58442;52.716;23.560;2023-05-11T08:24:22;102218.73;;;18.84;33.62
70521;BME280;58442;52.716;23.560;2023-05-11T08:26:32;102213.77;;;18.93;33.35
70521;BME280;58442;52.716;23.560;2023-05-11T08:28:34;102216.30;;;19.02;33.25
70521;BME280;58442;52.716;23.560;2023-05-11T08:30:35;102216.87;;;19.14;33.20
70521;BME280;58442;52.716;23.560;2023-05-11T08:32:37;102218.27;;;19.28;32.95
70521;BME280;58442;52.716;23.560;2023-05-11T08:34:47;102219.98;;;19.36;32.70
70521;BME280;58442;52.716;23.560;2023-05-11T08:36:49;102201.20;;;19.45;32.48
70521;BME280;58442;52.716;23.560;2023-05-11T08:38:51;102211.95;;;19.54;32.32
70521;BME280;58442;52.716;23.560;2023-05-11T08:40:53;102212.93;;;19.65;32.18
70521;BME280;58442;52.716;23.560;2023-05-11T08:43:03;102201.23;;;19.75;32.01
70521;BME280;58442;52.716;23.560;2023-05-11T08:45:09;102200.18;;;19.83;31.77
70521;BME280;58442;52.716;23.560;2023-05-11T08:47:12;102201.41;;;19.89;31.45
70521;BME280;58442;52.716;23.560;2023-05-11T08:49:14;102199.91;;;19.95;31.31
70521;BME280;58442;52.716;23.560;2023-05-11T08:51:16;102200.78;;;20.03;31.40
70521;BME280;58442;52.716;23.560;2023-05-11T08:53:18;102197.76;;;20.12;31.26
70521;BME280;58442;52.716;23.560;2023-05-11T08:55:21;102206.58;;;20.25;31.16
70521;BME280;58442;52.716;23.560;2023-05-11T08:57:28;102205.04;;;20.31;30.83
70521;BME280;58442;52.716;23.560;2023-05-11T08:59:32;102209.83;;;20.34;30.74
70521;BME280;58442;52.716;23.560;2023-05-11T09:01:35;102208.24;;;20.33;30.50
70521;BME280;58442;52.716;23.560;2023-05-11T09:03:40;102204.32;;;20.37;30.64
70521;BME280;58442;52.716;23.560;2023-05-11T09:05:46;102206.38;;;20.44;30.42
70521;BME280;58442;52.716;23.560;2023-05-11T09:07:49;102213.61;;;20.52;30.38
70521;BME280;58442;52.716;23.560;2023-05-11T09:09:53;102204.56;;;20.59;30.20
70521;BME280;58442;52.716;23.560;2023-05-11T09:11:56;102207.78;;;20.64;30.07
70521;BME280;58442;52.716;23.560;2023-05-11T09:13:58;102202.30;;;20.68;30.02
70521;BME280;58442;52.716;23.560;2023-05-11T09:16:01;102203.90;;;20.72;30.00
70521;BME280;58442;52.716;23.560;2023-05-11T09:18:02;102204.73;;;20.76;29.78
70521;BME280;58442;52.716;23.560;2023-05-11T09:20:06;102199.62;;;20.79;29.65
70521;BME280;58442;52.716;23.560;2023-05-11T09:22:09;102208.36;;;20.84;29.79
70521;BME280;58442;52.716;23.560;2023-05-11T09:24:15;102192.62;;;20.92;29.71
70521;BME280;58442;52.716;23.560;2023-05-11T09:26:21;102194.63;;;20.95;29.47
70521;BME280;58442;52.716;23.560;2023-05-11T09:28:29;102193.47;;;20.99;29.40
70521;BME280;58442;52.716;23.560;2023-05-11T09:30:30;102193.91;;;21.05;29.45
70521;BME280;58442;52.716;23.560;2023-05-11T09:34:54;102200.77;;;21.22;29.17
70521;BME280;58442;52.716;23.560;2023-05-11T09:36:57;102204.32;;;21.26;29.11
70521;BME280;58442;52.716;23.560;2023-05-11T09:39:02;102189.77;;;21.33;28.77
70521;BME280;58442;52.716;23.560;2023-05-11T09:41:04;102181.09;;;21.34;28.98
70521;BME280;58442;52.716;23.560;2023-05-11T09:43:18;102179.19;;;21.42;28.94
70521;BME280;58442;52.716;23.560;2023-05-11T09:45:42;102177.58;;;21.41;28.84
70521;BME280;58442;52.716;23.560;2023-05-11T09:47:51;102189.07;;;21.43;28.69
70521;BME280;58442;52.716;23.560;2023-05-11T09:49:53;102173.98;;;21.33;28.69
70521;BME280;58442;52.716;23.560;2023-05-11T09:51:59;102170.42;;;21.33;28.51
70521;BME280;58442;52.716;23.560;2023-05-11T09:56:14;102144.84;;;21.50;28.47
70521;BME280;58442;52.716;23.560;2023-05-11T09:58:16;102154.37;;;21.56;28.36
70521;BME280;58442;52.716;23.560;2023-05-11T10:00:18;102173.33;;;21.57;28.18
70521;BME280;58442;52.716;23.560;2023-05-11T10:02:25;102151.99;;;21.58;28.38
70521;BME280;58442;52.716;23.560;2023-05-11T10:04:30;102165.83;;;21.58;28.25
70521;BME280;58442;52.716;23.560;2023-05-11T10:08:46;102153.63;;;21.70;27.87
70521;BME280;58442;52.716;23.560;2023-05-11T10:10:49;102168.29;;;21.77;28.04
70521;BME280;58442;52.716;23.560;2023-05-11T10:12:51;102156.70;;;21.54;28.18
70521;BME280;58442;52.716;23.560;2023-05-11T10:15:00;102151.10;;;21.40;28.16
70521;BME280;58442;52.716;23.560;2023-05-11T10:17:03;102146.72;;;21.32;28.18
70521;BME280;58442;52.716;23.560;2023-05-11T10:19:06;102152.32;;;21.46;27.94
70521;BME280;58442;52.716;23.560;2023-05-11T10:21:10;102147.25;;;21.55;27.93
70521;BME280;58442;52.716;23.560;2023-05-11T10:23:13;102157.95;;;21.67;27.72
70521;BME280;58442;52.716;23.560;2023-05-11T10:25:15;102154.42;;;21.74;27.65
70521;BME280;58442;52.716;23.560;2023-05-11T10:27:19;102141.39;;;21.81;27.66
70521;BME280;58442;52.716;23.560;2023-05-11T10:29:24;102148.95;;;21.92;27.63
70521;BME280;58442;52.716;23.560;2023-05-11T10:31:28;102143.45;;;21.99;27.51
70521;BME280;58442;52.716;23.560;2023-05-11T10:33:30;102134.34;;;22.02;27.41
70521;BME280;58442;52.716;23.560;2023-05-11T10:35:32;102136.73;;;22.07;27.32
70521;BME280;58442;52.716;23.560;2023-05-11T10:37:39;102120.16;;;22.14;27.23
70521;BME280;58442;52.716;23.560;2023-05-11T10:39:41;102119.39;;;22.17;27.04
70521;BME280;58442;52.716;23.560;2023-05-11T10:41:56;102117.40;;;22.21;27.09
70521;BME280;58442;52.716;23.560;2023-05-11T10:50:51;102132.83;;;22.22;26.81
70521;BME280;58442;52.716;23.560;2023-05-11T10:57:53;102115.05;;;22.30;26.82
70521;BME280;58442;52.716;23.560;2023-05-11T11:02:20;102116.63;;;22.56;26.79
70521;BME280;58442;52.716;23.560;2023-05-11T11:04:23;102115.05;;;22.66;26.73
70521;BME280;58442;52.716;23.560;2023-05-11T11:06:26;102124.95;;;22.74;26.38
70521;BME280;58442;52.716;23.560;2023-05-11T11:09:19;102110.68;;;22.76;26.44
70521;BME280;58442;52.716;23.560;2023-05-11T11:10:42;102117.02;;;22.80;26.47
70521;BME280;58442;52.716;23.560;2023-05-11T11:13:05;102113.83;;;22.85;26.37
70521;BME280;58442;52.716;23.560;2023-05-11T11:15:17;102109.92;;;22.86;26.36
70521;BME280;58442;52.716;23.560;2023-05-11T11:17:27;102104.35;;;22.89;26.24
70521;BME280;58442;52.716;23.560;2023-05-11T11:19:34;102099.19;;;22.91;26.07